Time;durP1;ratioP1;P1;durP2;ratioP2;P2;SDS_P1;SDS_P2;PMS_P1;PMS_P2;Temp;Humidity;BMP_temperature;BMP_pressure;BME280_temperature;BME280_humidity;BME280_pressure;Samples;Min_cycle;Max_cycle;Signal;HPM_P1;HPM_P2
2021/12/23 05:25:14;;;;;;;88.80;50.55;;;141.10;2176.00;;;;;;5980645;24;20061;-83
2021/12/23 05:32:11;;;;;;;85.45;43.45;;;141.00;2176.00;;;;;;5871642;24;20005;-83
2021/12/23 05:35:38;;;;;;;146.32;85.03;;;141.00;2176.00;;;;;;5886551;24;20029;-83
2021/12/23 05:46:01;;;;;;;147.43;70.90;;;141.20;2176.00;;;;;;5925014;24;20000;-83
2021/12/23 06:38:35;;;;;;;138.60;69.05;;;141.30;2176.00;;;;;;6086741;23;20050;-82
2021/12/23 06:42:11;;;;;;;221.88;101.18;;;141.40;2176.00;;;;;;6034641;23;20015;-83
2021/12/23 07:00:11;;;;;;;118.53;62.22;;;141.20;2176.00;;;;;;5924680;24;20016;-83
2021/12/23 07:10:37;;;;;;;;;;;141.20;2176.00;;;;;;5980851;24;20080;-84
2021/12/23 07:46:59;;;;;;;88.00;50.10;;;115.90;2176.00;;;;;;6063983;23;20047;-83
2021/12/23 07:53:37;;;;;;;85.85;51.95;;;115.80;2176.00;;;;;;6062372;23;20038;-83
2021/12/23 10:52:30;;;;;;;58.50;35.20;;;0.70;2201.60;;;;;;6134976;23;20012;-88
2021/12/23 11:00:33;;;;;;;47.05;30.67;;;25.60;2201.60;;;;;;6156925;23;20338;-89
2021/12/23 11:32:14;;;;;;;78.38;41.13;;;51.30;2227.20;;;;;;6049607;23;20377;-86
2021/12/23 11:41:16;;;;;;;;;;;;;;;;;;;;;
2021/12/23 11:44:11;;;;;;;64.40;42.35;;;52.10;2227.20;;;;;;6000111;23;20095;-90
2021/12/23 11:46:55;;;;;;;42.97;26.05;;;76.80;2227.20;;;;;;5959929;24;20012;-90
2021/12/23 11:49:25;;;;;;;41.35;24.85;;;77.00;2227.20;;;;;;5959525;24;20015;-89
2021/12/23 11:51:59;;;;;;;27.35;19.73;;;77.30;2227.20;;;;;;6056813;23;20328;-88
2021/12/23 11:54:32;;;;;;;36.60;24.42;;;77.40;2227.20;;;;;;6129011;23;20420;-88
2021/12/23 11:57:35;;;;;;;34.58;25.42;;;102.50;2227.20;;;;;;6103623;23;20013;-91
2021/12/23 12:03:20;;;;;;;26.27;17.85;;;102.90;2227.20;;;;;;6109420;23;20036;-89
2021/12/23 12:05:49;;;;;;;38.97;26.85;;;102.90;2227.20;;;;;;6128980;23;20006;-91
2021/12/23 12:08:15;;;;;;;55.35;36.22;;;103.30;2227.20;;;;;;6103348;23;20013;-88
2021/12/23 12:10:43;;;;;;;37.90;22.05;;;128.10;2252.80;;;;;;6103142;23;20435;-89
2021/12/23 12:13:14;;;;;;;38.63;22.13;;;103.10;2227.20;;;;;;6103015;23;20032;-89
2021/12/23 12:16:10;;;;;;;40.42;26.85;;;103.20;2227.20;;;;;;6110632;23;20006;-86
2021/12/23 12:19:13;;;;;;;26.92;19.38;;;128.00;2252.80;;;;;;6109139;23;20026;-87
2021/12/23 12:23:06;;;;;;;;;;;;;;;;;;;;;
2021/12/23 13:14:14;;;;;;;31.00;23.15;;;103.20;2227.20;;;;;;6156165;23;20117;-89
2021/12/23 13:17:30;;;;;;;48.85;32.33;;;128.10;2252.80;;;;;;6095539;23;20025;-89
2021/12/23 14:00:58;;;;;;;40.42;27.02;;;102.90;2227.20;;;;;;6155669;23;20423;-87
2021/12/23 15:16:30;;;;;;;169.63;101.32;;;77.10;2227.20;;;;;;6158843;23;20144;-88
2021/12/23 15:19:35;;;;;;;206.63;121.18;;;77.10;2227.20;;;;;;6157823;23;20005;-86
2021/12/23 15:22:36;;;;;;;202.98;121.05;;;77.10;2227.20;;;;;;6157980;23;20006;-90
2021/12/23 15:25:10;;;;;;;196.18;118.38;;;77.00;2227.20;;;;;;6158048;23;20033;-88
2021/12/23 15:27:40;;;;;;;144.57;92.25;;;77.00;2227.20;;;;;;6157710;23;19998;-89
2021/12/23 15:30:19;;;;;;;145.88;88.93;;;77.00;2227.20;;;;;;6157828;23;20029;-89
2021/12/23 15:32:46;;;;;;;183.15;114.55;;;76.90;2227.20;;;;;;6157800;23;20006;-89
2021/12/23 15:35:17;;;;;;;185.48;117.35;;;76.90;2227.20;;;;;;6157908;23;20048;-91
2021/12/23 15:37:49;;;;;;;195.07;123.57;;;76.90;2227.20;;;;;;6157717;23;20080;-88
2021/12/23 15:40:35;;;;;;;222.93;128.07;;;76.90;2227.20;;;;;;6157863;23;20005;-90
2021/12/23 15:43:06;;;;;;;231.70;140.05;;;77.00;2227.20;;;;;;6158189;23;20415;-91
2021/12/23 15:49:33;;;;;;;235.13;139.25;;;76.90;2227.20;;;;;;6159018;23;20008;-93
2021/12/23 15:58:45;;;;;;;216.65;127.25;;;76.80;2227.20;;;;;;6159091;23;20003;-90
2021/12/23 16:01:11;;;;;;;392.67;198.82;;;76.80;2227.20;;;;;;6157348;23;20013;-89
2021/12/23 16:03:41;;;;;;;409.65;218.57;;;52.10;2227.20;;;;;;6157684;23;19998;-90
2021/12/23 16:09:36;;;;;;;332.48;182.63;;;76.90;2227.20;;;;;;6158723;23;20025;-90
2021/12/23 16:12:18;;;;;;;;;;;;;;;;;;;;;
2021/12/23 16:18:10;;;;;;;324.55;164.35;;;76.90;2227.20;;;;;;6158142;23;20021;-89
2021/12/23 16:20:36;;;;;;;266.15;148.35;;;76.90;2227.20;;;;;;6156668;23;20001;-86
2021/12/23 16:23:02;;;;;;;270.60;148.95;;;76.80;2227.20;;;;;;6156931;23;20438;-76
2021/12/23 16:25:28;;;;;;;285.20;158.18;;;76.90;2227.20;;;;;;6155703;23;20008;-79
2021/12/23 16:27:55;;;;;;;285.73;162.25;;;52.10;2227.20;;;;;;6155749;23;20064;-83
2021/12/23 16:30:24;;;;;;;295.80;183.35;;;76.80;2227.20;;;;;;6156371;23;20419;-76
2021/12/23 16:32:55;;;;;;;224.32;131.43;;;76.90;2227.20;;;;;;6155993;23;20407;-76
2021/12/23 16:35:25;;;;;;;202.10;126.18;;;76.90;2227.20;;;;;;6157149;23;20001;-79
2021/12/23 16:37:52;;;;;;;155.00;97.30;;;76.90;2227.20;;;;;;6155985;23;20450;-79
2021/12/23 16:40:21;;;;;;;130.68;82.85;;;76.90;2227.20;;;;;;6157598;23;20003;-76
2021/12/23 16:42:48;;;;;;;116.00;75.05;;;76.90;2227.20;;;;;;6155552;23;20017;-75
2021/12/23 16:45:16;;;;;;;129.25;78.90;;;76.90;2227.20;;;;;;6157560;23;19998;-75
2021/12/23 16:47:48;;;;;;;192.02;116.10;;;76.90;2227.20;;;;;;6157666;23;19993;-85
2021/12/23 16:50:43;;;;;;;250.90;146.93;;;76.80;2227.20;;;;;;6155677;23;20002;-86
2021/12/23 16:59:23;;;;;;;294.23;179.10;;;76.90;2227.20;;;;;;6123266;23;20002;-77
2021/12/23 17:01:49;;;;;;;276.60;171.25;;;76.80;2227.20;;;;;;6155518;23;20032;-75
2021/12/23 17:04:15;;;;;;;313.08;185.10;;;76.80;2227.20;;;;;;6155367;23;20005;-79
2021/12/23 17:06:41;;;;;;;482.50;275.30;;;76.80;2227.20;;;;;;6155783;23;20028;-79
2021/12/23 17:09:07;;;;;;;315.63;192.18;;;76.80;2227.20;;;;;;6155805;23;20002;-81
2021/12/23 17:11:32;;;;;;;432.30;232.65;;;76.90;2227.20;;;;;;6155407;23;20316;-77
2021/12/23 17:13:58;;;;;;;340.58;191.27;;;76.90;2227.20;;;;;;6155692;23;20488;-78
2021/12/23 17:16:25;;;;;;;270.20;160.48;;;76.80;2227.20;;;;;;6156609;23;19997;-78
2021/12/23 17:19:09;;;;;;;236.07;142.55;;;76.80;2227.20;;;;;;6155581;23;20292;-80
2021/12/23 17:21:51;;;;;;;202.85;124.05;;;76.80;2227.20;;;;;;6155888;23;20320;-78
2021/12/23 17:24:20;;;;;;;188.40;117.90;;;76.80;2227.20;;;;;;6154687;23;20009;-80
2021/12/23 17:26:53;;;;;;;215.95;128.35;;;76.90;2227.20;;;;;;6155569;23;20307;-80
2021/12/23 17:29:20;;;;;;;;;;;76.80;2227.20;;;;;;6157757;23;20021;-81
2021/12/23 17:31:46;;;;;;;197.52;115.03;;;52.10;2227.20;;;;;;6155252;23;20309;-80
2021/12/23 17:34:12;;;;;;;196.93;118.18;;;52.00;2227.20;;;;;;6155532;23;20001;-80
2021/12/23 17:36:41;;;;;;;237.93;147.20;;;52.10;2227.20;;;;;;6156691;23;20312;-80
2021/12/23 17:39:09;;;;;;;245.68;155.23;;;52.00;2227.20;;;;;;6155157;23;19997;-80
2021/12/23 17:41:35;;;;;;;242.07;153.27;;;52.10;2227.20;;;;;;6155064;23;20312;-81
2021/12/23 17:44:01;;;;;;;266.00;156.27;;;52.00;2227.20;;;;;;6154893;23;20001;-79
2021/12/23 17:46:28;;;;;;;244.10;145.27;;;52.00;2227.20;;;;;;6155172;23;20319;-80
2021/12/23 17:48:54;;;;;;;218.90;139.98;;;52.10;2227.20;;;;;;6155325;23;19998;-80
2021/12/23 17:51:20;;;;;;;208.90;136.35;;;51.90;2227.20;;;;;;6154996;23;20001;-80
2021/12/23 17:53:46;;;;;;;256.60;159.85;;;52.00;2227.20;;;;;;6155561;23;19997;-80
2021/12/23 17:56:12;;;;;;;285.40;180.98;;;52.10;2227.20;;;;;;6155305;23;20478;-79
2021/12/23 17:58:38;;;;;;;265.85;172.45;;;52.10;2227.20;;;;;;6154922;23;20006;-80
2021/12/23 18:01:06;;;;;;;251.88;161.15;;;52.10;2227.20;;;;;;6154986;23;20327;-80
2021/12/23 18:03:33;;;;;;;297.15;192.45;;;52.10;2227.20;;;;;;6155232;23;20132;-80
2021/12/23 18:06:00;;;;;;;356.25;228.43;;;52.10;2227.20;;;;;;6154834;23;20010;-79
2021/12/23 18:08:26;;;;;;;389.58;238.90;;;52.10;2227.20;;;;;;6154884;23;20081;-78
2021/12/23 18:10:52;;;;;;;434.88;270.35;;;52.00;2227.20;;;;;;6155167;23;20003;-78
2021/12/23 18:13:25;;;;;;;447.02;268.70;;;52.00;2227.20;;;;;;6156406;23;20072;-80
2021/12/23 18:15:52;;;;;;;437.42;261.35;;;52.00;2227.20;;;;;;6155194;23;19997;-82
2021/12/23 18:18:18;;;;;;;469.98;285.05;;;52.10;2227.20;;;;;;6156439;23;19993;-81
2021/12/23 18:20:45;;;;;;;494.10;313.73;;;52.00;2227.20;;;;;;6154807;23;20024;-80
2021/12/23 18:23:12;;;;;;;459.50;295.13;;;51.90;2227.20;;;;;;6155117;23;20002;-80
2021/12/23 18:25:40;;;;;;;495.60;323.90;;;51.90;2227.20;;;;;;6155029;23;20009;-77
2021/12/23 18:28:07;;;;;;;487.67;319.48;;;51.90;2227.20;;;;;;6154640;23;20002;-82
2021/12/23 18:30:35;;;;;;;480.23;315.08;;;51.90;2227.20;;;;;;6154979;23;20052;-81
2021/12/23 18:33:01;;;;;;;532.42;359.25;;;51.90;2227.20;;;;;;6155184;23;20008;-78
2021/12/23 18:35:33;;;;;;;466.48;304.70;;;51.90;2227.20;;;;;;6154499;23;20012;-79
2021/12/23 18:38:02;;;;;;;533.25;337.13;;;51.80;2227.20;;;;;;6155048;23;19997;-79
2021/12/23 18:40:34;;;;;;;513.35;325.58;;;51.80;2227.20;;;;;;6154625;23;20001;-80
2021/12/23 18:43:04;;;;;;;584.85;365.92;;;51.80;2227.20;;;;;;6155133;23;20423;-76
2021/12/23 18:45:30;;;;;;;489.00;303.92;;;51.70;2227.20;;;;;;6156403;23;20084;-79
2021/12/23 18:47:56;;;;;;;345.15;213.73;;;51.70;2227.20;;;;;;6154666;23;20025;-76
2021/12/23 18:50:27;;;;;;;270.70;159.95;;;51.80;2227.20;;;;;;6154970;23;20080;-80
2021/12/23 18:52:54;;;;;;;272.88;173.75;;;51.80;2227.20;;;;;;6154951;23;20426;-83
2021/12/23 18:55:23;;;;;;;318.77;193.35;;;51.70;2227.20;;;;;;6154677;23;20237;-83
2021/12/23 18:57:53;;;;;;;368.00;217.52;;;51.70;2227.20;;;;;;6155023;23;20037;-81
2021/12/23 19:11:36;;;;;;;365.90;238.02;;;51.80;2227.20;;;;;;6156009;23;20363;-79
2021/12/23 19:14:18;;;;;;;334.10;216.40;;;51.80;2227.20;;;;;;6154925;23;20012;-82
2021/12/23 19:16:50;;;;;;;307.38;203.48;;;51.80;2227.20;;;;;;6153757;23;20020;-82
2021/12/23 19:19:43;;;;;;;316.23;194.38;;;51.80;2227.20;;;;;;6154664;23;20025;-83
2021/12/23 19:22:18;;;;;;;319.25;201.95;;;51.80;2227.20;;;;;;6154673;23;20024;-82
2021/12/23 19:24:46;;;;;;;374.50;229.07;;;51.80;2227.20;;;;;;6154783;23;20005;-80
2021/12/23 19:31:11;;;;;;;364.67;230.07;;;51.80;2227.20;;;;;;6155530;23;20049;-85
2021/12/23 19:33:58;;;;;;;437.15;255.70;;;51.80;2227.20;;;;;;6154819;23;19994;-82
2021/12/23 19:36:24;;;;;;;449.75;273.02;;;51.80;2227.20;;;;;;6153994;23;20084;-81
2021/12/23 19:42:21;;;;;;;474.15;294.63;;;51.80;2227.20;;;;;;6156032;23;20055;-83
2021/12/23 20:05:45;;;;;;;379.80;227.63;;;51.60;2227.20;;;;;;6153790;23;20068;-86
2021/12/23 20:09:14;;;;;;;365.58;223.13;;;51.70;2227.20;;;;;;6156600;23;20025;-87
2021/12/23 20:12:07;;;;;;;324.17;203.27;;;51.70;2227.20;;;;;;6156520;23;20067;-83
2021/12/23 20:18:43;;;;;;;294.17;176.40;;;51.70;2227.20;;;;;;6157584;23;20373;-84
2021/12/23 20:21:10;;;;;;;238.57;142.77;;;51.80;2227.20;;;;;;6156460;23;20106;-83
2021/12/23 20:23:37;;;;;;;263.88;160.98;;;51.80;2227.20;;;;;;6156735;23;20001;-86
2021/12/23 20:26:03;;;;;;;249.68;158.93;;;51.80;2227.20;;;;;;6155978;23;20044;-85
2021/12/23 20:28:49;;;;;;;253.35;156.68;;;51.80;2227.20;;;;;;6156781;23;20001;-86
2021/12/23 20:31:15;;;;;;;252.77;157.85;;;51.80;2227.20;;;;;;6156980;23;20005;-88
2021/12/23 20:33:46;;;;;;;298.85;181.65;;;51.70;2227.20;;;;;;6156642;23;20399;-84
2021/12/23 20:36:15;;;;;;;379.08;230.65;;;51.70;2227.20;;;;;;6156858;23;19994;-84
2021/12/23 20:39:06;;;;;;;379.98;239.77;;;51.60;2227.20;;;;;;6156493;23;20012;-86
2021/12/23 20:41:32;;;;;;;373.27;230.65;;;51.60;2227.20;;;;;;6154666;23;20001;-86
2021/12/23 20:44:20;;;;;;;345.48;219.27;;;51.60;2227.20;;;;;;6156414;23;19998;-87
2021/12/23 20:46:52;;;;;;;341.90;216.55;;;51.60;2227.20;;;;;;6156169;23;20033;-87
2021/12/23 20:49:20;;;;;;;340.75;214.07;;;51.60;2227.20;;;;;;6156482;23;20005;-83
2021/12/23 20:51:49;;;;;;;296.92;190.82;;;51.60;2227.20;;;;;;6156232;23;19997;-83
2021/12/23 20:54:17;;;;;;;257.40;161.73;;;51.60;2227.20;;;;;;6155967;23;19997;-85
2021/12/23 20:56:46;;;;;;;245.20;154.25;;;51.60;2227.20;;;;;;6155884;23;19998;-88
2021/12/23 20:59:14;;;;;;;265.75;164.98;;;51.60;2227.20;;;;;;6157971;23;19994;-87
2021/12/23 21:01:40;;;;;;;382.77;242.55;;;51.50;2227.20;;;;;;6156605;23;20434;-85
2021/12/23 21:04:07;;;;;;;369.23;233.82;;;51.40;2227.20;;;;;;6156015;23;20001;-80
2021/12/23 21:06:33;;;;;;;308.20;194.75;;;51.40;2227.20;;;;;;6155597;23;20100;-75
2021/12/23 21:08:59;;;;;;;322.80;198.15;;;51.40;2227.20;;;;;;6155451;23;20060;-75
2021/12/23 21:11:25;;;;;;;346.52;204.68;;;51.40;2227.20;;;;;;6155463;23;20363;-80
2021/12/23 21:13:54;;;;;;;311.92;200.20;;;51.40;2227.20;;;;;;6155519;23;20374;-85
2021/12/23 21:16:20;;;;;;;356.73;209.65;;;51.20;2227.20;;;;;;6155182;23;20005;-80
2021/12/23 21:18:57;;;;;;;354.25;214.55;;;51.20;2227.20;;;;;;6156038;23;20002;-87
2021/12/23 21:21:27;;;;;;;318.23;198.10;;;51.20;2227.20;;;;;;6156105;23;20024;-86
2021/12/23 21:23:53;;;;;;;394.65;223.57;;;26.50;2201.60;;;;;;6156007;23;20001;-87
2021/12/23 21:26:20;;;;;;;478.40;260.42;;;26.00;2201.60;;;;;;6156255;23;20001;-90
2021/12/23 21:28:47;;;;;;;488.95;266.23;;;26.40;2201.60;;;;;;6158442;23;20105;-85
2021/12/23 21:31:13;;;;;;;496.00;286.25;;;26.10;2201.60;;;;;;6172231;23;19993;-84
2021/12/23 21:33:39;;;;;;;445.45;272.92;;;51.20;2227.20;;;;;;6170043;23;19998;-85
2021/12/23 21:36:06;;;;;;;407.70;251.48;;;51.20;2227.20;;;;;;6161724;23;20009;-89
2021/12/23 21:38:31;;;;;;;426.30;259.52;;;25.70;2201.60;;;;;;6156353;23;20056;-86
2021/12/23 21:40:58;;;;;;;474.80;288.27;;;26.50;2201.60;;;;;;6155955;23;19997;-86
2021/12/23 21:43:28;;;;;;;498.55;300.05;;;26.50;2201.60;;;;;;6156159;23;20048;-87
2021/12/23 21:45:59;;;;;;;491.05;298.85;;;26.50;2201.60;;;;;;6156284;23;20005;-88
2021/12/23 21:48:30;;;;;;;468.30;270.58;;;51.20;2227.20;;;;;;6156212;23;20012;-86
2021/12/23 21:50:57;;;;;;;467.15;271.98;;;51.20;2227.20;;;;;;6155787;23;20029;-86
2021/12/23 21:53:22;;;;;;;469.30;274.35;;;26.50;2201.60;;;;;;6155956;23;20012;-87
2021/12/23 21:55:51;;;;;;;473.67;281.85;;;51.20;2227.20;;;;;;6155751;23;20024;-86
2021/12/23 21:58:19;;;;;;;484.55;283.27;;;26.50;2201.60;;;;;;6156450;23;20002;-85
2021/12/23 22:00:58;;;;;;;476.42;288.80;;;51.20;2227.20;;;;;;6157030;23;20056;-88
2021/12/23 22:03:27;;;;;;;496.80;317.05;;;26.50;2201.60;;;;;;6156330;23;19993;-89
2021/12/23 22:05:53;;;;;;;495.25;309.70;;;26.50;2201.60;;;;;;6155714;23;20056;-87
2021/12/23 22:08:20;;;;;;;490.92;306.70;;;26.50;2201.60;;;;;;6157819;23;19997;-89
2021/12/23 22:10:47;;;;;;;526.22;320.85;;;26.50;2201.60;;;;;;6156158;23;20028;-89
2021/12/23 22:13:13;;;;;;;529.58;326.27;;;26.30;2201.60;;;;;;6156211;23;20062;-88
2021/12/23 22:15:42;;;;;;;462.20;284.13;;;26.40;2201.60;;;;;;6155625;23;20511;-86
2021/12/23 22:18:10;;;;;;;509.58;324.65;;;26.20;2201.60;;;;;;6155384;23;20002;-89
2021/12/23 22:20:36;;;;;;;479.88;295.20;;;26.20;2201.60;;;;;;6155761;23;20009;-86
2021/12/23 22:23:04;;;;;;;453.80;268.90;;;26.10;2201.60;;;;;;6155711;23;20002;-86
2021/12/23 22:25:31;;;;;;;448.92;261.70;;;26.00;2201.60;;;;;;6155585;23;20049;-86
2021/12/23 22:27:58;;;;;;;512.83;308.33;;;26.10;2201.60;;;;;;6155924;23;20004;-86
2021/12/23 22:30:25;;;;;;;510.60;308.38;;;26.20;2201.60;;;;;;6155714;23;19997;-86
2021/12/23 22:33:00;;;;;;;494.30;302.70;;;26.20;2201.60;;;;;;6155728;23;20425;-88
2021/12/23 22:35:48;;;;;;;535.88;309.75;;;26.20;2201.60;;;;;;6171157;23;20009;-86
2021/12/23 22:41:28;;;;;;;358.65;196.48;;;26.00;2201.60;;;;;;6138133;23;20065;-86
2021/12/23 22:44:19;;;;;;;369.15;206.38;;;26.00;2201.60;;;;;;6157279;23;20085;-86
2021/12/23 22:46:57;;;;;;;391.15;222.02;;;26.00;2201.60;;;;;;6156958;23;20033;-87
2021/12/23 22:49:33;;;;;;;347.65;199.07;;;26.00;2201.60;;;;;;6155411;23;19997;-86
2021/12/23 22:52:17;;;;;;;361.70;197.68;;;26.00;2201.60;;;;;;6155609;23;19997;-86
2021/12/23 22:54:43;;;;;;;347.73;208.20;;;25.90;2201.60;;;;;;6155677;23;20009;-87
2021/12/23 22:57:12;;;;;;;388.98;227.95;;;25.90;2201.60;;;;;;6155431;23;20001;-87
2021/12/23 23:00:12;;;;;;;383.90;229.35;;;26.00;2201.60;;;;;;6155531;23;20482;-87
2021/12/23 23:02:41;;;;;;;396.92;222.77;;;25.90;2201.60;;;;;;6155621;23;20355;-87
2021/12/23 23:05:28;;;;;;;429.95;259.85;;;25.70;2201.60;;;;;;6155061;23;20080;-83
2021/12/23 23:07:54;;;;;;;414.27;250.90;;;51.20;2227.20;;;;;;6154533;23;20017;-87
2021/12/23 23:10:23;;;;;;;410.20;249.98;;;25.60;2201.60;;;;;;6155422;23;20024;-86
2021/12/23 23:13:00;;;;;;;426.35;246.38;;;25.70;2201.60;;;;;;6155902;23;20002;-88
2021/12/23 23:18:22;;;;;;;473.98;283.13;;;0.80;2201.60;;;;;;6156799;23;20037;-88
2021/12/23 23:20:48;;;;;;;472.67;279.00;;;0.80;2201.60;;;;;;6157113;23;20090;-86
2021/12/23 23:23:23;;;;;;;441.02;258.00;;;25.60;2201.60;;;;;;6157127;23;20356;-89
2021/12/23 23:26:01;;;;;;;429.02;250.60;;;25.70;2201.60;;;;;;6157307;23;20006;-88
2021/12/23 23:36:56;;;;;;;459.80;266.80;;;25.70;2201.60;;;;;;6158809;23;20012;-86
2021/12/23 23:40:12;;;;;;;482.63;281.17;;;25.80;2201.60;;;;;;6157612;23;20479;-87
2021/12/23 23:42:52;;;;;;;442.27;256.27;;;25.70;2201.60;;;;;;6157131;23;20027;-87
2021/12/23 23:45:55;;;;;;;352.67;201.38;;;25.70;2201.60;;;;;;6156925;23;20012;-85
2021/12/23 23:48:24;;;;;;;346.30;198.55;;;25.70;2201.60;;;;;;6157373;23;20060;-85
2021/12/23 23:50:53;;;;;;;324.40;184.27;;;25.70;2201.60;;;;;;6157110;23;20025;-88
2021/12/23 23:53:31;;;;;;;328.05;194.70;;;25.70;2201.60;;;;;;6156928;23;20002;-87
2021/12/23 23:56:08;;;;;;;334.95;196.73;;;25.70;2201.60;;;;;;6157417;23;20075;-89
2021/12/23 23:58:41;;;;;;;272.05;159.60;;;25.60;2201.60;;;;;;6157679;23;20077;-87
